Time;durP1;ratioP1;P1;durP2;ratioP2;P2;SDS_P1;SDS_P2;PMS_P1;PMS_P2;Temp;Humidity;BMP_temperature;BMP_pressure;BME280_temperature;BME280_humidity;BME280_pressure;Samples;Min_cycle;Max_cycle;Signal;HPM_P1;HPM_P2
2024/02/25 00:00:03;;;;;;;;;2.33;0.67;;;;;21.90;40.41;99920.44;6401132;22;45236;-78
2024/02/25 00:02:29;;;;;;;;;1.00;1.00;;;;;21.89;40.53;99913.50;6400834;22;45291;-79
2024/02/25 00:04:55;;;;;;;;;0.67;0.67;;;;;21.73;40.83;99884.53;6400811;22;45263;-79
2024/02/25 00:07:20;;;;;;;;;0.33;0.33;;;;;21.89;40.87;99914.31;6399975;22;58974;-80
2024/02/25 00:09:45;;;;;;;;;2.67;1.67;;;;;21.88;40.90;99920.66;6400057;22;45283;-80
2024/02/25 00:12:11;;;;;;;;;1.00;1.00;;;;;21.88;40.86;99915.34;6399388;22;45283;-79
2024/02/25 00:14:37;;;;;;;;;0.33;0.33;;;;;21.89;40.88;99921.44;6399680;22;45368;-80
2024/02/25 00:17:02;;;;;;;;;0.33;0.33;;;;;21.76;40.75;99903.66;6399687;22;45286;-80
2024/02/25 00:19:29;;;;;;;;;1.33;1.33;;;;;21.89;40.39;99932.03;6398917;22;45260;-80
2024/02/25 00:21:55;;;;;;;;;0.67;0.67;;;;;21.84;40.93;99924.66;6399234;22;45278;-79
2024/02/25 00:24:22;;;;;;;;;0.67;0.67;;;;;21.88;40.73;99927.78;6399511;22;45388;-80
2024/02/25 00:26:48;;;;;;;;;1.67;1.33;;;;;21.87;40.71;99932.25;6399278;22;45289;-80
2024/02/25 00:29:15;;;;;;;;;0.67;0.67;;;;;21.88;40.34;99935.72;6398781;22;45355;-79
2024/02/25 00:31:41;;;;;;;;;1.00;0.33;;;;;21.87;40.34;99926.09;6398743;22;45149;-79
2024/02/25 00:34:06;;;;;;;;;0.67;0.00;;;;;21.88;40.41;99927.78;6399081;22;45466;-80
2024/02/25 00:36:32;;;;;;;;;0.00;0.00;;;;;21.69;40.28;99906.31;6398560;22;51561;-80
2024/02/25 00:38:57;;;;;;;;;0.00;0.00;;;;;21.71;40.43;99905.09;6399240;22;45255;-79
2024/02/25 00:41:23;;;;;;;;;0.33;0.33;;;;;21.66;40.81;99896.13;6398943;22;45303;-80
2024/02/25 00:43:48;;;;;;;;;0.67;0.67;;;;;21.82;40.36;99919.59;6399317;22;45230;-79
2024/02/25 00:46:13;;;;;;;;;1.67;0.33;;;;;21.85;40.53;99932.44;6398645;22;46508;-80
2024/02/25 00:48:39;;;;;;;;;3.00;1.33;;;;;21.73;40.25;99904.88;6398475;22;52181;-80
2024/02/25 00:51:04;;;;;;;;;0.00;0.00;;;;;21.85;40.28;99921.84;6399007;22;45578;-79
2024/02/25 00:53:31;;;;;;;;;2.33;0.67;;;;;21.87;40.76;99926.09;6399027;22;45274;-79
2024/02/25 00:55:56;;;;;;;;;0.33;0.33;;;;;21.86;40.43;99922.63;6398556;22;46135;-78
2024/02/25 00:58:22;;;;;;;;;0.33;0.33;;;;;21.86;40.63;99919.97;6399018;22;45349;-78
2024/02/25 01:00:48;;;;;;;;;0.00;0.00;;;;;21.73;40.54;99902.25;6399318;22;45275;-74
2024/02/25 01:03:14;;;;;;;;;0.00;0.00;;;;;21.73;40.34;99900.41;6397418;22;45283;-75
2024/02/25 01:05:39;;;;;;;;;0.67;0.67;;;;;21.86;40.81;99925.28;6397993;22;46252;-76
2024/02/25 01:08:05;;;;;;;;;0.67;0.67;;;;;21.87;40.92;99918.16;6397876;22;45437;-75
2024/02/25 01:10:31;;;;;;;;;0.33;0.00;;;;;21.73;41.11;99899.59;6303577;22;2150615;-75
2024/02/25 01:12:56;;;;;;;;;0.00;0.00;;;;;21.85;41.11;99924.47;6400780;22;45337;-75
2024/02/25 01:15:21;;;;;;;;;0.00;0.00;;;;;21.85;40.62;99916.53;6400390;22;45985;-75
2024/02/25 01:17:46;;;;;;;;;0.67;0.67;;;;;21.85;41.19;99915.72;6399857;22;45242;-75
2024/02/25 01:20:12;;;;;;;;;0.67;0.67;;;;;21.84;40.72;99914.91;6400580;22;48417;-75
2024/02/25 01:22:37;;;;;;;;;0.67;0.33;;;;;21.84;41.13;99911.44;6400139;22;55331;-75
2024/02/25 01:25:03;;;;;;;;;0.67;0.00;;;;;21.68;41.30;99884.31;6372323;22;46015;-76
2024/02/25 01:27:29;;;;;;;;;0.00;0.00;;;;;21.85;41.03;99913.06;6400190;22;45467;-73
2024/02/25 01:29:54;;;;;;;;;0.00;0.00;;;;;21.85;40.90;99907.78;6371610;22;45284;-76
2024/02/25 01:32:19;;;;;;;;;2.00;0.67;;;;;21.85;40.54;99910.44;6371941;22;45333;-76
2024/02/25 01:34:45;;;;;;;;;0.67;0.67;;;;;21.71;41.10;99888.41;6400109;22;45986;-76
2024/02/25 01:37:11;;;;;;;;;1.33;0.67;;;;;21.76;41.23;99899.19;6399961;22;45286;-73
2024/02/25 01:39:36;;;;;;;;;1.00;0.67;;;;;21.69;40.81;99885.13;6400849;22;45374;-74
2024/02/25 01:42:02;;;;;;;;;1.00;0.67;;;;;21.76;41.18;99896.56;6400202;22;45390;-75
2024/02/25 01:44:27;;;;;;;;;0.00;0.00;;;;;21.60;40.97;99864.16;6400080;22;46965;-74
2024/02/25 01:46:52;;;;;;;;;0.00;0.00;;;;;21.78;41.14;99896.38;6399695;22;45354;-75
2024/02/25 01:49:19;;;;;;;;;0.00;0.00;;;;;21.78;40.74;99897.16;6400718;22;45254;-76
2024/02/25 01:51:45;;;;;;;;;1.67;0.00;;;;;21.83;40.80;99896.56;6399976;22;45402;-76
2024/02/25 01:54:11;;;;;;;;;0.67;0.00;;;;;21.84;40.56;99890.25;6399804;22;47134;-76
2024/02/25 01:56:38;;;;;;;;;0.00;0.00;;;;;21.83;40.63;99886.00;6400411;22;45286;-76
2024/02/25 01:59:04;;;;;;;;;0.00;0.00;;;;;21.73;40.99;99873.94;6400219;22;45326;-76
2024/02/25 02:01:34;;;;;;;;;0.00;0.00;;;;;21.82;40.59;99885.16;6399497;22;45298;-74
2024/02/25 02:04:01;;;;;;;;;1.67;0.00;;;;;21.82;40.56;99884.34;6399950;22;46811;-76
2024/02/25 02:06:26;;;;;;;;;0.67;0.67;;;;;21.79;40.18;99880.25;6399896;22;45278;-75
2024/02/25 02:08:52;;;;;;;;;0.00;0.00;;;;;21.59;41.08;99861.72;6399995;22;45442;-76
2024/02/25 02:11:18;;;;;;;;;0.67;0.67;;;;;21.80;40.98;99889.03;6400395;22;45334;-75
2024/02/25 02:13:44;;;;;;;;;0.67;0.67;;;;;21.78;40.97;99878.63;6399362;22;47084;-75
2024/02/25 02:16:13;;;;;;;;;1.67;1.67;;;;;21.69;40.61;99877.19;6399816;22;45233;-74
2024/02/25 02:18:42;;;;;;;;;0.00;0.00;;;;;21.79;40.91;99882.09;6400276;22;45275;-75
2024/02/25 02:21:26;;;;;;;;;0.67;0.67;;;;;21.82;40.60;99882.50;6399235;22;45334;-76
2024/02/25 02:23:53;;;;;;;;;1.67;0.67;;;;;21.82;40.61;99879.88;6399994;22;49044;-75
2024/02/25 02:26:19;;;;;;;;;0.67;0.67;;;;;21.82;41.04;99866.63;6400119;22;45331;-74
2024/02/25 02:28:44;;;;;;;;;1.67;0.67;;;;;21.82;41.11;99868.44;6399656;22;45279;-75
2024/02/25 02:31:09;;;;;;;;;0.67;0.67;;;;;21.81;41.12;99864.16;6399473;22;47745;-75
2024/02/25 02:33:38;;;;;;;;;0.67;0.67;;;;;21.68;40.93;99838.50;6399666;22;59535;-75
2024/02/25 02:36:05;;;;;;;;;2.00;0.00;;;;;21.70;40.67;99839.13;6399938;22;45446;-76
2024/02/25 02:38:30;;;;;;;;;0.67;0.67;;;;;21.81;40.54;99865.00;6400375;22;45339;-74
2024/02/25 02:40:55;;;;;;;;;1.00;1.00;;;;;21.81;41.21;99857.03;6400252;22;45256;-75
2024/02/25 02:43:23;;;;;;;;;1.67;0.67;;;;;21.80;41.05;99852.78;6399812;22;45283;-75
2024/02/25 02:45:50;;;;;;;;;1.67;0.00;;;;;21.80;40.69;99851.97;6399812;22;45263;-75
2024/02/25 02:48:16;;;;;;;;;0.67;0.67;;;;;21.71;41.21;99836.28;6400015;22;45251;-74
2024/02/25 02:50:41;;;;;;;;;0.00;0.00;;;;;21.80;40.85;99844.03;6400223;22;45457;-75
2024/02/25 02:53:07;;;;;;;;;0.67;0.67;;;;;21.80;40.98;99841.38;6399612;22;47420;-75
2024/02/25 02:55:32;;;;;;;;;0.00;0.00;;;;;21.78;40.94;99843.41;6400001;22;52158;-76
2024/02/25 02:57:57;;;;;;;;;0.00;0.00;;;;;21.80;40.50;99844.03;6399893;22;45249;-75
2024/02/25 03:00:22;;;;;;;;;0.00;0.00;;;;;21.77;41.17;99839.13;6371485;22;45448;-75
2024/02/25 03:02:48;;;;;;;;;2.33;0.00;;;;;21.79;40.85;99842.38;6399998;22;47644;-75
2024/02/25 03:05:13;;;;;;;;;0.00;0.00;;;;;21.77;40.95;99834.66;6400027;22;45275;-75
2024/02/25 03:07:38;;;;;;;;;0.33;0.33;;;;;21.73;41.17;99830.75;6399997;22;45292;-76
2024/02/25 03:10:06;;;;;;;;;0.00;0.00;;;;;21.78;40.52;99833.63;6400412;22;45266;-76
2024/02/25 03:12:31;;;;;;;;;0.67;0.67;;;;;21.79;40.78;99832.59;6398897;22;46381;-76
2024/02/25 03:14:56;;;;;;;;;0.00;0.00;;;;;21.66;40.63;99809.59;6399892;22;45219;-75
2024/02/25 03:17:22;;;;;;;;;0.67;0.00;;;;;21.78;41.00;99823.03;6399982;22;45295;-75
2024/02/25 03:19:48;;;;;;;;;0.33;0.33;;;;;21.77;40.44;99821.41;6399657;22;45375;-75
2024/02/25 03:22:13;;;;;;;;;2.33;0.33;;;;;21.67;40.85;99803.28;6399765;22;46153;-75
2024/02/25 03:24:39;;;;;;;;;0.00;0.00;;;;;21.47;40.41;99768.84;6399800;22;45371;-75
2024/02/25 03:27:04;;;;;;;;;0.33;0.33;;;;;21.78;40.45;99823.03;6398650;22;60734;-76
2024/02/25 03:29:30;;;;;;;;;0.67;0.33;;;;;21.77;40.84;99818.75;6400274;22;45236;-76
2024/02/25 03:31:55;;;;;;;;;1.67;1.00;;;;;21.72;40.87;99824.69;6401021;22;45401;-75
2024/02/25 03:34:20;;;;;;;;;0.33;0.33;;;;;21.65;40.58;99804.50;6403310;22;45670;-75
2024/02/25 03:36:46;;;;;;;;;0.67;0.67;;;;;21.67;40.34;99807.75;6403238;22;45289;-73
2024/02/25 03:39:11;;;;;;;;;0.00;0.00;;;;;21.77;40.21;99826.72;6403582;22;45268;-75
2024/02/25 03:41:36;;;;;;;;;0.33;0.33;;;;;21.77;40.44;99833.81;6402918;22;46127;-76
2024/02/25 03:44:02;;;;;;;;;0.00;0.00;;;;;21.76;40.97;99827.72;6403434;22;45292;-75
2024/02/25 03:46:27;;;;;;;;;0.33;0.33;;;;;21.67;40.55;99810.41;6403497;22;45267;-74
2024/02/25 03:48:53;;;;;;;;;0.33;0.33;;;;;21.76;40.25;99826.88;6403531;22;45327;-75
2024/02/25 03:51:18;;;;;;;;;0.00;0.00;;;;;21.75;40.34;99823.44;6402892;22;45692;-75
2024/02/25 03:53:44;;;;;;;;;0.00;0.00;;;;;21.75;40.31;99826.09;6374159;22;49791;-75
2024/02/25 03:56:10;;;;;;;;;1.33;0.67;;;;;21.71;40.34;99820.38;6402585;22;45705;-76
2024/02/25 03:58:35;;;;;;;;;0.00;0.00;;;;;21.60;40.55;99802.44;6403329;22;45473;-75
2024/02/25 04:01:00;;;;;;;;;1.67;0.67;;;;;21.62;40.68;99809.16;6402040;22;55529;-75
2024/02/25 04:03:26;;;;;;;;;0.67;0.67;;;;;21.74;40.60;99812.03;6403298;22;45302;-73
2024/02/25 04:05:51;;;;;;;;;0.00;0.00;;;;;21.63;41.02;99796.75;6403299;22;45265;-75
2024/02/25 04:08:16;;;;;;;;;0.00;0.00;;;;;21.76;40.53;99817.13;6402762;22;45315;-75
2024/02/25 04:10:42;;;;;;;;;0.67;0.67;;;;;21.47;41.01;99774.13;6401741;22;60426;-74
2024/02/25 04:13:07;;;;;;;;;0.00;0.00;;;;;21.77;40.61;99820.59;6402977;22;45388;-75
2024/02/25 04:15:32;;;;;;;;;1.67;0.00;;;;;21.77;40.97;99820.59;6403040;22;47975;-75
2024/02/25 04:17:58;;;;;;;;;0.00;0.00;;;;;21.73;40.43;99809.59;6403096;22;45423;-75
2024/02/25 04:20:24;;;;;;;;;0.33;0.33;;;;;21.78;41.18;99824.88;6402852;22;45268;-75
2024/02/25 04:22:50;;;;;;;;;0.00;0.00;;;;;21.77;40.67;99820.59;6402581;22;45274;-75
2024/02/25 04:25:15;;;;;;;;;0.67;0.67;;;;;21.56;40.68;99796.75;6402391;22;45522;-75
2024/02/25 04:27:40;;;;;;;;;0.33;0.33;;;;;21.77;40.87;99834.66;6403023;22;45403;-75
2024/02/25 04:30:06;;;;;;;;;0.00;0.00;;;;;21.67;40.77;99813.88;6402432;22;47266;-75
2024/02/25 04:32:32;;;;;;;;;0.67;0.67;;;;;21.65;40.53;99810.59;6402363;22;45391;-75
2024/02/25 04:34:57;;;;;;;;;1.67;0.33;;;;;21.76;40.49;99834.84;6402687;22;45361;-75
2024/02/25 04:37:22;;;;;;;;;0.00;0.00;;;;;21.74;40.40;99824.47;6402637;22;45410;-75
2024/02/25 04:39:47;;;;;;;;;0.67;0.67;;;;;21.73;41.03;99831.59;6401781;22;53544;-75
2024/02/25 04:42:13;;;;;;;;;0.33;0.33;;;;;21.66;40.95;99817.53;6402896;22;45283;-75
2024/02/25 04:44:38;;;;;;;;;0.67;0.67;;;;;21.70;41.03;99817.94;6400227;22;45256;-75
2024/02/25 04:47:04;;;;;;;;;0.00;0.00;;;;;21.66;40.53;99819.34;6400305;22;56199;-75
2024/02/25 04:49:29;;;;;;;;;0.67;0.67;;;;;21.74;40.86;99835.03;6400818;22;46032;-75
2024/02/25 04:51:54;;;;;;;;;0.00;0.00;;;;;21.69;40.72;99821.59;6400622;22;45187;-75
2024/02/25 04:54:19;;;;;;;;;0.67;0.00;;;;;21.63;40.61;99813.47;6400510;22;45311;-75
2024/02/25 04:56:45;;;;;;;;;0.67;0.67;;;;;21.72;40.54;99818.56;6400635;22;45259;-75
2024/02/25 04:59:11;;;;;;;;;0.00;0.00;;;;;21.72;40.63;99821.19;6400189;22;46011;-75
2024/02/25 05:01:47;;;;;;;;;0.67;0.67;;;;;21.70;40.37;99813.44;6400606;22;45248;-75
2024/02/25 05:04:13;;;;;;;;;1.33;0.67;;;;;21.70;40.24;99817.94;6400592;22;45259;-75
2024/02/25 05:06:38;;;;;;;;;0.00;0.00;;;;;21.73;40.76;99826.28;6400738;22;45419;-75
2024/02/25 05:09:04;;;;;;;;;0.00;0.00;;;;;21.72;40.79;99824.69;6399983;22;46030;-75
2024/02/25 05:11:30;;;;;;;;;0.00;0.00;;;;;21.73;40.35;99822.81;6400578;22;45341;-75
2024/02/25 05:13:55;;;;;;;;;0.67;0.67;;;;;21.73;40.45;99822.81;6400273;22;45211;-75
2024/02/25 05:16:21;;;;;;;;;0.00;0.00;;;;;21.72;40.80;99821.19;6400077;22;45451;-76
2024/02/25 05:18:46;;;;;;;;;0.00;0.00;;;;;21.56;40.65;99798.59;6400183;22;46102;-75
2024/02/25 05:21:12;;;;;;;;;2.00;0.00;;;;;21.72;40.67;99827.31;6400019;22;45306;-74
2024/02/25 05:23:37;;;;;;;;;0.67;0.67;;;;;21.68;40.47;99819.97;6400539;22;45313;-75
2024/02/25 05:26:03;;;;;;;;;0.33;0.00;;;;;21.72;40.66;99819.38;6400887;22;45405;-75
2024/02/25 05:28:28;;;;;;;;;0.00;0.00;;;;;21.72;40.64;99816.72;6400665;22;45793;-75
2024/02/25 05:30:53;;;;;;;;;0.00;0.00;;;;;21.72;40.71;99808.78;6371718;22;45371;-77
2024/02/25 05:33:19;;;;;;;;;0.00;0.00;;;;;21.73;40.71;99812.22;6400900;22;45221;-74
2024/02/25 05:35:45;;;;;;;;;1.00;0.00;;;;;21.72;40.73;99813.25;6400762;22;45162;-76
2024/02/25 05:38:10;;;;;;;;;0.00;0.00;;;;;21.63;40.30;99807.34;6400191;22;45106;-75
2024/02/25 05:40:40;;;;;;;;;0.00;0.00;;;;;21.72;40.62;99807.97;6400463;22;45393;-75
2024/02/25 05:43:05;;;;;;;;;0.00;0.00;;;;;21.71;40.69;99812.44;6400452;22;45330;-74
2024/02/25 05:45:31;;;;;;;;;0.67;0.67;;;;;21.63;40.52;99796.75;6400638;22;45320;-75
2024/02/25 05:47:56;;;;;;;;;0.00;0.00;;;;;21.69;40.67;99795.94;6400512;22;45273;-75
2024/02/25 05:50:21;;;;;;;;;0.33;0.33;;;;;21.44;40.66;99756.03;6400360;22;45275;-75
2024/02/25 05:52:47;;;;;;;;;0.67;0.67;;;;;21.72;40.25;99803.50;6400006;22;45379;-75
2024/02/25 05:55:12;;;;;;;;;0.67;0.67;;;;;21.69;40.69;99795.94;6399600;22;48213;-75
2024/02/25 05:57:37;;;;;;;;;0.33;0.33;;;;;21.72;40.87;99803.50;6400513;22;45882;-75
2024/02/25 06:00:03;;;;;;;;;0.00;0.00;;;;;21.73;40.72;99799.00;6399996;22;45315;-76
2024/02/25 06:02:28;;;;;;;;;0.67;0.67;;;;;21.72;40.77;99797.38;6400409;22;45334;-75
2024/02/25 06:04:54;;;;;;;;;1.67;0.00;;;;;21.69;40.79;99785.38;6400467;22;45419;-77
2024/02/25 06:07:22;;;;;;;;;0.00;0.00;;;;;21.71;40.86;99790.44;6399344;22;47346;-75
2024/02/25 06:09:48;;;;;;;;;0.67;0.67;;;;;21.72;40.85;99792.09;6399936;22;45300;-76
2024/02/25 06:12:13;;;;;;;;;0.00;0.00;;;;;21.61;40.61;99769.69;6400441;22;45295;-76
2024/02/25 06:14:38;;;;;;;;;0.67;0.67;;;;;21.70;40.41;99776.38;6400063;22;53182;-76
2024/02/25 06:17:03;;;;;;;;;0.00;0.00;;;;;21.59;40.41;99764.59;6399614;22;50550;-74
2024/02/25 06:19:29;;;;;;;;;0.67;0.67;;;;;21.71;40.85;99777.22;6399958;22;55533;-74
2024/02/25 06:21:54;;;;;;;;;0.00;0.00;;;;;21.71;40.41;99779.84;6399804;22;47627;-76
2024/02/25 06:24:20;;;;;;;;;0.00;0.00;;;;;21.70;40.32;99779.03;6371758;22;45284;-76
2024/02/25 06:26:45;;;;;;;;;0.67;0.67;;;;;21.66;40.57;99771.72;6399701;22;46961;-74
2024/02/25 06:29:11;;;;;;;;;0.00;0.00;;;;;21.71;40.89;99771.91;6399917;22;45241;-76
2024/02/25 06:31:36;;;;;;;;;0.67;0.67;;;;;21.68;40.56;99767.03;6399847;22;45354;-74
2024/02/25 06:34:02;;;;;;;;;0.33;0.33;;;;;21.70;40.65;99771.09;6399963;22;45402;-74
2024/02/25 06:36:27;;;;;;;;;2.00;0.00;;;;;21.70;40.36;99768.44;6400028;22;45261;-75
2024/02/25 06:38:53;;;;;;;;;0.33;0.33;;;;;21.71;40.38;99769.25;6400106;22;45294;-75
2024/02/25 06:41:22;;;;;;;;;0.00;0.00;;;;;21.66;40.46;99756.66;6400095;22;45333;-75
2024/02/25 06:43:49;;;;;;;;;1.00;0.67;;;;;21.65;40.35;99759.50;6399966;22;45426;-75
2024/02/25 06:46:15;;;;;;;;;0.33;0.33;;;;;21.69;40.48;99764.19;6399566;22;47460;-75
2024/02/25 06:48:40;;;;;;;;;0.00;0.00;;;;;21.68;40.71;99761.72;6399818;22;45339;-75
2024/02/25 06:51:06;;;;;;;;;1.00;0.67;;;;;21.68;40.63;99767.84;6399466;22;45273;-75
2024/02/25 06:53:31;;;;;;;;;0.33;0.33;;;;;21.69;40.61;99750.94;6399927;22;45403;-74
2024/02/25 06:55:57;;;;;;;;;0.00;0.00;;;;;21.67;40.45;99747.69;6399783;22;46147;-75
2024/02/25 06:58:23;;;;;;;;;0.00;0.00;;;;;21.61;40.61;99737.91;6400220;22;45277;-75
2024/02/25 07:00:48;;;;;;;;;1.67;0.00;;;;;21.69;40.18;99740.34;6400379;22;45344;-75
2024/02/25 07:03:13;;;;;;;;;0.00;0.00;;;;;21.70;40.43;99744.63;6400423;22;45261;-76
2024/02/25 07:05:39;;;;;;;;;0.00;0.00;;;;;21.62;40.62;99739.56;6399561;22;46231;-74
2024/02/25 07:08:04;;;;;;;;;0.33;0.33;;;;;21.70;40.72;99751.78;6399684;22;45347;-74
2024/02/25 07:10:30;;;;;;;;;2.67;0.33;;;;;21.54;40.61;99719.41;6399987;22;45420;-75
2024/02/25 07:12:56;;;;;;;;;0.00;0.00;;;;;21.69;40.67;99745.66;6399863;22;49047;-76
2024/02/25 07:15:22;;;;;;;;;0.67;0.67;;;;;21.59;40.69;99727.53;6399253;22;46285;-76
2024/02/25 07:17:47;;;;;;;;;0.00;0.00;;;;;21.67;40.24;99739.75;6399268;22;45414;-75
2024/02/25 07:20:12;;;;;;;;;1.67;0.00;;;;;21.58;40.14;99714.50;6399235;22;45215;-75
2024/02/25 07:22:38;;;;;;;;;0.00;0.00;;;;;21.69;40.53;99729.78;6399587;22;45223;-75
2024/02/25 07:25:03;;;;;;;;;1.00;0.00;;;;;21.67;40.95;99720.41;6398637;22;52734;-74
2024/02/25 07:27:29;;;;;;;;;0.00;0.00;;;;;21.64;40.31;99729.56;6399099;22;45221;-76
2024/02/25 07:29:54;;;;;;;;;0.67;0.00;;;;;21.69;40.57;99726.31;6371045;22;45537;-76
2024/02/25 07:32:19;;;;;;;;;1.67;0.00;;;;;21.69;40.92;99731.59;6399517;22;45322;-75
2024/02/25 07:34:44;;;;;;;;;0.67;0.67;;;;;21.56;40.75;99714.72;6399448;22;46289;-76
2024/02/25 07:37:11;;;;;;;;;0.67;0.67;;;;;21.44;41.15;99703.13;6399549;22;45282;-75
2024/02/25 07:39:39;;;;;;;;;1.00;1.00;;;;;21.69;40.60;99726.31;6371114;22;45276;-77
2024/02/25 07:42:05;;;;;;;;;0.00;0.00;;;;;21.69;40.66;99729.78;6399441;22;45224;-79
2024/02/25 07:44:30;;;;;;;;;0.00;0.00;;;;;21.54;40.92;99706.16;6399028;22;46068;-76
2024/02/25 07:46:55;;;;;;;;;1.00;0.33;;;;;21.61;40.63;99717.56;6398915;22;56008;-75
2024/02/25 07:49:20;;;;;;;;;0.00;0.00;;;;;21.71;41.15;99719.78;6399393;22;45177;-75
2024/02/25 07:51:46;;;;;;;;;1.00;0.00;;;;;21.73;40.75;99717.75;6399700;22;45154;-75
2024/02/25 07:54:11;;;;;;;;;1.00;0.00;;;;;21.74;40.68;99710.63;6399022;22;50120;-75
2024/02/25 07:56:36;;;;;;;;;0.67;0.67;;;;;21.58;40.75;99688.84;6398958;22;47979;-75
2024/02/25 07:59:02;;;;;;;;;1.00;0.67;;;;;21.69;41.26;99713.06;6399811;22;45224;-75
2024/02/25 08:01:27;;;;;;;;;2.00;0.00;;;;;21.67;40.97;99693.94;6399725;22;45180;-76
2024/02/25 08:03:52;;;;;;;;;0.67;0.67;;;;;21.75;41.24;99706.97;6398999;22;46195;-75
2024/02/25 08:06:26;;;;;;;;;1.67;0.00;;;;;21.76;40.77;99707.75;6399599;22;45225;-76
2024/02/25 08:08:51;;;;;;;;;0.67;0.67;;;;;21.74;40.68;99706.16;6399025;22;45294;-75
2024/02/25 08:11:16;;;;;;;;;1.67;0.33;;;;;21.74;40.69;99710.63;6399019;22;45448;-75
2024/02/25 08:13:41;;;;;;;;;0.00;0.00;;;;;21.67;40.61;99694.75;6399280;22;47807;-75
2024/02/25 08:16:07;;;;;;;;;1.00;0.50;;;;;21.70;40.70;99702.25;6398671;22;45214;-75
2024/02/25 08:18:32;;;;;;;;;0.67;0.67;;;;;21.70;40.58;99701.47;6400005;22;45251;-76
2024/02/25 08:20:57;;;;;;;;;0.33;0.00;;;;;21.73;41.22;99701.84;6401143;22;45251;-75
2024/02/25 08:23:23;;;;;;;;;1.67;0.67;;;;;21.73;40.71;99696.56;6400782;22;49405;-75
2024/02/25 08:25:48;;;;;;;;;1.67;0.67;;;;;21.70;40.97;99694.31;6400910;22;45202;-75
2024/02/25 08:28:13;;;;;;;;;2.67;1.00;;;;;21.65;40.87;99685.41;6400314;22;57388;-75
2024/02/25 08:30:39;;;;;;;;;0.00;0.00;;;;;21.70;40.76;99690.88;6400160;22;45200;-76
2024/02/25 08:33:04;;;;;;;;;0.67;0.67;;;;;21.73;40.89;99685.16;6400982;22;45261;-75
2024/02/25 08:35:29;;;;;;;;;0.67;0.67;;;;;21.67;41.12;99680.69;6400387;22;45332;-75
2024/02/25 08:37:55;;;;;;;;;0.00;0.00;;;;;21.65;41.26;99680.88;6400844;22;45759;-75
2024/02/25 08:40:22;;;;;;;;;0.00;0.00;;;;;21.74;40.85;99677.03;6400911;22;45367;-75
2024/02/25 08:42:47;;;;;;;;;1.00;0.33;;;;;21.68;41.06;99661.13;6400301;22;46721;-75
2024/02/25 08:45:13;;;;;;;;;0.67;0.00;;;;;21.72;41.09;99665.84;6399716;22;45237;-75
2024/02/25 08:47:38;;;;;;;;;0.67;0.67;;;;;21.73;41.20;99666.63;6401010;22;45463;-75
2024/02/25 08:50:04;;;;;;;;;0.00;0.00;;;;;21.64;40.84;99655.44;6401311;22;45466;-75
2024/02/25 08:52:29;;;;;;;;;0.67;0.67;;;;;21.54;41.08;99639.19;6400090;22;46994;-76
2024/02/25 08:54:55;;;;;;;;;0.00;0.00;;;;;21.73;41.13;99663.97;6400296;22;45185;-75
2024/02/25 08:57:20;;;;;;;;;0.00;0.00;;;;;21.73;40.64;99656.84;6400584;22;45163;-75
2024/02/25 08:59:46;;;;;;;;;1.67;0.00;;;;;21.58;40.71;99617.38;6399904;22;45370;-75
2024/02/25 09:02:11;;;;;;;;;0.00;0.00;;;;;21.67;41.06;99646.28;6400717;22;45870;-76
2024/02/25 09:04:36;;;;;;;;;0.00;0.00;;;;;21.66;40.63;99642.81;6400430;22;45259;-75
2024/02/25 09:07:02;;;;;;;;;0.00;0.00;;;;;21.71;40.86;99640.38;6400939;22;45208;-76
2024/02/25 09:09:27;;;;;;;;;0.00;0.00;;;;;21.70;41.07;99632.66;6400781;22;45280;-75
2024/02/25 09:11:53;;;;;;;;;0.00;0.00;;;;;21.66;41.16;99626.13;6399995;22;46417;-76
2024/02/25 09:14:18;;;;;;;;;2.00;1.33;;;;;21.66;40.53;99628.75;6399802;22;45503;-75
2024/02/25 09:16:44;;;;;;;;;2.33;0.67;;;;;21.66;40.62;99615.53;6400971;22;45176;-76
2024/02/25 09:19:09;;;;;;;;;0.00;0.00;;;;;21.73;41.17;99625.09;6400661;22;45623;-76
2024/02/25 09:21:35;;;;;;;;;0.67;0.67;;;;;21.73;41.09;99626.91;6371715;22;46962;-75
2024/02/25 09:24:04;;;;;;;;;0.00;0.00;;;;;;;;6400781;22;45249;-75
2024/02/25 09:26:29;;;;;;;;;1.67;0.67;;;;;21.71;41.03;99618.38;6400360;22;45222;-76
2024/02/25 09:28:55;;;;;;;;;0.67;0.67;;;;;21.69;40.83;99608.00;6399737;22;45273;-76
2024/02/25 09:31:20;;;;;;;;;0.00;0.00;;;;;21.66;41.07;99600.47;6400380;22;45283;-75
2024/02/25 09:33:46;;;;;;;;;0.67;0.67;;;;;21.68;40.95;99595.78;6400433;22;48080;-75
2024/02/25 09:36:11;;;;;;;;;0.33;0.33;;;;;21.72;40.97;99604.13;6400315;22;45335;-75
2024/02/25 09:38:36;;;;;;;;;1.67;0.67;;;;;21.71;41.00;99605.13;6400679;22;45411;-75
2024/02/25 09:41:03;;;;;;;;;1.67;0.00;;;;;21.55;40.45;99571.97;6399841;22;48567;-75
2024/02/25 09:43:28;;;;;;;;;0.67;0.00;;;;;21.65;40.54;99584.81;6400389;22;45397;-75
2024/02/25 09:45:58;;;;;;;;;2.00;0.33;;;;;21.66;40.66;99579.28;6400156;22;45150;-75
2024/02/25 09:48:26;;;;;;;;;0.67;0.00;;;;;21.70;40.73;99580.50;6400343;22;45357;-75
2024/02/25 09:50:53;;;;;;;;;0.33;0.33;;;;;21.70;40.27;99580.50;6400255;22;45606;-76
2024/02/25 09:53:21;;;;;;;;;0.67;0.67;;;;;21.70;40.29;99572.53;6400411;22;45282;-75
2024/02/25 09:55:47;;;;;;;;;0.00;0.00;;;;;21.53;40.59;99548.38;6400639;22;45352;-75
2024/02/25 09:58:14;;;;;;;;;0.33;0.00;;;;;21.66;40.57;99560.75;6400104;22;45347;-75
2024/02/25 10:00:40;;;;;;;;;0.00;0.00;;;;;21.70;40.47;99556.66;6400412;22;45408;-75
2024/02/25 10:03:11;;;;;;;;;0.67;0.67;;;;;21.70;40.56;99556.66;6399772;22;45192;-75
2024/02/25 10:05:37;;;;;;;;;0.00;0.00;;;;;21.70;40.42;99554.00;6400481;22;45271;-75
2024/02/25 10:08:04;;;;;;;;;1.00;0.00;;;;;21.69;40.65;99549.75;6399973;22;46722;-75
2024/02/25 10:10:32;;;;;;;;;2.00;1.00;;;;;21.68;40.34;99548.13;6399893;22;46992;-76
2024/02/25 10:13:00;;;;;;;;;0.00;0.00;;;;;21.71;40.88;99541.59;6370997;22;45175;-76
2024/02/25 10:15:25;;;;;;;;;1.00;0.00;;;;;21.58;40.83;99523.94;6400624;22;45307;-75
2024/02/25 10:17:51;;;;;;;;;0.00;0.00;;;;;21.61;40.50;99510.28;6399930;22;45483;-77
2024/02/25 10:20:16;;;;;;;;;0.00;0.00;;;;;20.97;40.95;99413.84;6400100;22;50331;-75
2024/02/25 10:22:41;;;;;;;;;0.00;0.00;;;;;21.69;40.38;99520.66;6399978;22;54853;-75
2024/02/25 10:25:07;;;;;;;;;0.00;0.00;;;;;21.69;40.75;99518.00;6400479;22;45259;-76
2024/02/25 10:27:33;;;;;;;;;0.67;0.67;;;;;21.57;40.73;99491.34;6400008;22;45259;-75
2024/02/25 10:30:00;;;;;;;;;0.67;0.67;;;;;21.66;40.44;99496.41;6400093;22;45978;-75
2024/02/25 10:32:30;;;;;;;;;0.00;0.00;;;;;21.71;40.81;99492.13;6399885;22;45429;-75
2024/02/25 10:34:58;;;;;;;;;1.00;0.33;;;;;21.70;40.78;99481.75;6399861;22;45334;-75
2024/02/25 10:37:25;;;;;;;;;0.67;0.00;;;;;21.71;40.51;99480.72;6400477;22;45348;-76
2024/02/25 10:39:52;;;;;;;;;0.67;0.00;;;;;21.70;40.41;99477.25;6400049;22;45272;-76
2024/02/25 10:42:23;;;;;;;;;0.33;0.33;;;;;21.67;40.95;99475.06;6398384;22;45180;-75
2024/02/25 10:44:51;;;;;;;;;2.33;1.00;;;;;21.63;40.61;99474.66;6400281;22;45392;-77
2024/02/25 10:47:19;;;;;;;;;0.00;0.00;;;;;21.71;40.41;99470.94;6399857;22;45215;-75
2024/02/25 10:49:46;;;;;;;;;0.00;0.00;;;;;21.59;40.69;99446.16;6399433;22;46127;-75
2024/02/25 10:52:13;;;;;;;;;2.00;0.00;;;;;21.61;40.75;99447.59;6399941;22;45330;-75
2024/02/25 10:54:41;;;;;;;;;2.33;0.33;;;;;21.70;40.51;99463.22;6400600;22;45269;-75
2024/02/25 10:57:08;;;;;;;;;0.67;0.67;;;;;21.52;40.58;99415.25;6399225;22;45156;-75
2024/02/25 10:59:34;;;;;;;;;0.67;0.67;;;;;21.42;40.84;99430.75;6399951;22;45304;-76
2024/02/25 11:02:00;;;;;;;;;1.67;0.67;;;;;21.71;40.31;99451.59;6400305;22;45537;-75
2024/02/25 11:04:26;;;;;;;;;0.00;0.00;;;;;21.72;40.27;99446.09;6399854;22;45291;-75
2024/02/25 11:06:55;;;;;;;;;0.00;0.00;;;;;21.72;40.87;99446.09;6400215;22;45237;-75
2024/02/25 11:09:22;;;;;;;;;0.00;0.00;;;;;21.72;40.83;99443.47;6400104;22;46126;-75
2024/02/25 11:11:48;;;;;;;;;1.00;1.00;;;;;21.72;40.74;99437.34;6398906;22;45235;-75
2024/02/25 11:14:18;;;;;;;;;0.00;0.00;;;;;21.57;40.65;99414.59;6400141;22;45247;-75
2024/02/25 11:16:49;;;;;;;;;0.00;0.00;;;;;21.72;40.69;99427.56;6399775;22;45253;-75
2024/02/25 11:19:22;;;;;;;;;2.33;0.67;;;;;21.72;40.13;99408.22;6399792;22;45225;-75
2024/02/25 11:21:56;;;;;;;;;0.00;0.00;;;;;21.72;40.64;99410.88;6399392;22;45442;-75
2024/02/25 11:24:47;;;;;;;;;2.00;0.67;;;;;21.72;40.64;99405.59;6399602;22;45212;-75
2024/02/25 11:27:13;;;;;;;;;0.33;0.33;;;;;21.67;40.28;99378.94;6399373;22;45233;-75